sensor_id;sensor_type;location;lat;lon;timestamp;pressure;altitude;pressure_sealevel;temperature;humidity
56721;BME280;53183;47.412;18.884;2023-02-14T00:01:17;100954.94;;;1.29;100.00
56721;BME280;53183;47.412;18.884;2023-02-14T00:03:46;100949.72;;;1.28;100.00
56721;BME280;53183;47.412;18.884;2023-02-14T00:06:15;100949.72;;;1.28;100.00
56721;BME280;53183;47.412;18.884;2023-02-14T00:08:42;100961.06;;;1.33;100.00
56721;BME280;53183;47.412;18.884;2023-02-14T00:11:12;100951.50;;;1.35;100.00
56721;BME280;53183;47.412;18.884;2023-02-14T00:13:39;100950.62;;;1.34;100.00
56721;BME280;53183;47.412;18.884;2023-02-14T00:16:27;100961.94;;;1.32;100.00
56721;BME280;53183;47.412;18.884;2023-02-14T00:18:54;100958.44;;;1.34;100.00
56721;BME280;53183;47.412;18.884;2023-02-14T00:21:32;100952.28;;;1.22;100.00
56721;BME280;53183;47.412;18.884;2023-02-14T00:24:08;100959.25;;;1.23;100.00
56721;BME280;53183;47.412;18.884;2023-02-14T00:26:36;100961.88;;;1.26;100.00
56721;BME280;53183;47.412;18.884;2023-02-14T00:29:13;100954.06;;;1.26;100.00
56721;BME280;53183;47.412;18.884;2023-02-14T00:31:42;100951.56;;;1.39;100.00
56721;BME280;53183;47.412;18.884;2023-02-14T00:34:10;100957.66;;;1.45;100.00
56721;BME280;53183;47.412;18.884;2023-02-14T00:36:38;100956.78;;;1.43;100.00
56721;BME280;53183;47.412;18.884;2023-02-14T00:39:07;100946.38;;;1.47;100.00
56721;BME280;53183;47.412;18.884;2023-02-14T00:41:36;100949.88;;;1.49;100.00
56721;BME280;53183;47.412;18.884;2023-02-14T00:44:04;100949.00;;;1.50;100.00
56721;BME280;53183;47.412;18.884;2023-02-14T00:46:32;100942.97;;;1.53;100.00
56721;BME280;53183;47.412;18.884;2023-02-14T00:49:00;100947.25;;;1.46;100.00
56721;BME280;53183;47.412;18.884;2023-02-14T00:51:27;100946.34;;;1.44;100.00
56721;BME280;53183;47.412;18.884;2023-02-14T00:53:55;100950.72;;;1.45;100.00
56721;BME280;53183;47.412;18.884;2023-02-14T00:56:22;100956.72;;;1.32;100.00
56721;BME280;53183;47.412;18.884;2023-02-14T00:58:50;100954.94;;;1.26;100.00
56721;BME280;53183;47.412;18.884;2023-02-14T01:01:18;100948.06;;;1.36;100.00
56721;BME280;53183;47.412;18.884;2023-02-14T01:03:46;100955.06;;;1.46;100.00
56721;BME280;53183;47.412;18.884;2023-02-14T01:06:13;100950.75;;;1.51;100.00
56721;BME280;53183;47.412;18.884;2023-02-14T01:08:40;100949.00;;;1.47;100.00
56721;BME280;53183;47.412;18.884;2023-02-14T01:11:12;100952.56;;;1.61;100.00
56721;BME280;53183;47.412;18.884;2023-02-14T01:13:40;100945.59;;;1.59;100.00
56721;BME280;53183;47.412;18.884;2023-02-14T01:16:11;100945.53;;;1.48;100.00
56721;BME280;53183;47.412;18.884;2023-02-14T01:18:39;100942.03;;;1.43;100.00
56721;BME280;53183;47.412;18.884;2023-02-14T01:23:36;100938.53;;;1.41;100.00
56721;BME280;53183;47.412;18.884;2023-02-14T01:26:06;100937.72;;;1.45;100.00
56721;BME280;53183;47.412;18.884;2023-02-14T01:28:34;100929.00;;;1.42;100.00
56721;BME280;53183;47.412;18.884;2023-02-14T01:31:10;100931.56;;;1.40;100.00
56721;BME280;53183;47.412;18.884;2023-02-14T01:33:40;100928.06;;;1.38;100.00
56721;BME280;53183;47.412;18.884;2023-02-14T01:36:18;100924.66;;;1.42;100.00
56721;BME280;53183;47.412;18.884;2023-02-14T01:38:46;100917.72;;;1.43;100.00
56721;BME280;53183;47.412;18.884;2023-02-14T01:41:13;100910.81;;;1.54;100.00
56721;BME280;53183;47.412;18.884;2023-02-14T01:46:24;100917.75;;;1.50;100.00
56721;BME280;53183;47.412;18.884;2023-02-14T01:48:55;100918.72;;;1.69;100.00
56721;BME280;53183;47.412;18.884;2023-02-14T01:51:24;100916.16;;;1.80;100.00
56721;BME280;53183;47.412;18.884;2023-02-14T01:53:53;100915.31;;;1.79;100.00
56721;BME280;53183;47.412;18.884;2023-02-14T01:56:25;100915.34;;;1.85;100.00
56721;BME280;53183;47.412;18.884;2023-02-14T01:58:58;100911.91;;;1.94;100.00
56721;BME280;53183;47.412;18.884;2023-02-14T02:01:28;100914.50;;;1.88;100.00
56721;BME280;53183;47.412;18.884;2023-02-14T02:04:15;100909.25;;;1.85;100.00
56721;BME280;53183;47.412;18.884;2023-02-14T02:06:48;100910.09;;;1.84;100.00
56721;BME280;53183;47.412;18.884;2023-02-14T02:11:54;100910.97;;;1.80;100.00
56721;BME280;53183;47.412;18.884;2023-02-14T02:14:23;100915.31;;;1.79;100.00
56721;BME280;53183;47.412;18.884;2023-02-14T02:17:22;100910.97;;;1.83;100.00
56721;BME280;53183;47.412;18.884;2023-02-14T02:39:39;100879.53;;;1.49;100.00
56721;BME280;53183;47.412;18.884;2023-02-14T02:47:41;100884.75;;;1.49;100.00
56721;BME280;53183;47.412;18.884;2023-02-14T02:56:17;100890.94;;;1.74;100.00
56721;BME280;53183;47.412;18.884;2023-02-14T03:02:06;100883.06;;;1.63;100.00
56721;BME280;53183;47.412;18.884;2023-02-14T03:04:38;100879.59;;;1.55;100.00
56721;BME280;53183;47.412;18.884;2023-02-14T03:07:20;100883.03;;;1.54;100.00
56721;BME280;53183;47.412;18.884;2023-02-14T03:12:50;100874.34;;;1.52;100.00
56721;BME280;53183;47.412;18.884;2023-02-14T03:20:46;100883.94;;;1.55;100.00
56721;BME280;53183;47.412;18.884;2023-02-14T03:28:46;100873.38;;;1.35;100.00
56721;BME280;53183;47.412;18.884;2023-02-14T03:31:25;100881.25;;;1.47;100.00
56721;BME280;53183;47.412;18.884;2023-02-14T03:34:01;100874.31;;;1.48;100.00
56721;BME280;53183;47.412;18.884;2023-02-14T03:36:38;100877.78;;;1.42;100.00
56721;BME280;53183;47.412;18.884;2023-02-14T03:39:36;100874.34;;;1.52;100.00
56721;BME280;53183;47.412;18.884;2023-02-14T03:42:28;100877.78;;;1.42;100.00
56721;BME280;53183;47.412;18.884;2023-02-14T03:44:59;100882.16;;;1.49;100.00
56721;BME280;53183;47.412;18.884;2023-02-14T03:47:31;100877.78;;;1.51;100.00
56721;BME280;53183;47.412;18.884;2023-02-14T03:50:04;100876.03;;;1.44;100.00
56721;BME280;53183;47.412;18.884;2023-02-14T03:52:33;100879.50;;;1.45;100.00
56721;BME280;53183;47.412;18.884;2023-02-14T03:55:04;100883.88;;;1.49;100.00
56721;BME280;53183;47.412;18.884;2023-02-14T03:57:46;100874.28;;;1.38;100.00
56721;BME280;53183;47.412;18.884;2023-02-14T04:00:17;100875.09;;;1.31;100.00
56721;BME280;53183;47.412;18.884;2023-02-14T04:02:52;100881.19;;;1.35;100.00
56721;BME280;53183;47.412;18.884;2023-02-14T04:05:24;100873.44;;;1.43;100.00
56721;BME280;53183;47.412;18.884;2023-02-14T04:07:54;100877.78;;;1.51;100.00
56721;BME280;53183;47.412;18.884;2023-02-14T04:10:22;100875.25;;;1.56;100.00
56721;BME280;53183;47.412;18.884;2023-02-14T04:12:50;100869.03;;;1.37;100.00
56721;BME280;53183;47.412;18.884;2023-02-14T04:15:18;100868.22;;;1.44;100.00
56721;BME280;53183;47.412;18.884;2023-02-14T04:17:45;100868.31;;;1.59;100.00
56721;BME280;53183;47.412;18.884;2023-02-14T04:20:32;100867.37;;;1.47;100.00
56721;BME280;53183;47.412;18.884;2023-02-14T04:23:00;100869.19;;;1.61;100.00
56721;BME280;53183;47.412;18.884;2023-02-14T04:25:29;100863.09;;;1.64;100.00
56721;BME280;53183;47.412;18.884;2023-02-14T04:27:56;100859.66;;;1.70;100.00
56721;BME280;53183;47.412;18.884;2023-02-14T04:30:24;100849.22;;;1.65;100.00
56721;BME280;53183;47.412;18.884;2023-02-14T04:32:51;100852.72;;;1.70;100.00
56721;BME280;53183;47.412;18.884;2023-02-14T04:35:19;100857.91;;;1.66;100.00
56721;BME280;53183;47.412;18.884;2023-02-14T04:37:46;100861.38;;;1.64;100.00
56721;BME280;53183;47.412;18.884;2023-02-14T04:40:13;100861.34;;;1.57;100.00
56721;BME280;53183;47.412;18.884;2023-02-14T04:42:44;100860.50;;;1.59;100.00
56721;BME280;53183;47.412;18.884;2023-02-14T04:45:12;100874.37;;;1.58;100.00
56721;BME280;53183;47.412;18.884;2023-02-14T04:47:40;100871.81;;;1.61;100.00
56721;BME280;53183;47.412;18.884;2023-02-14T04:50:08;100870.06;;;1.63;100.00
56721;BME280;53183;47.412;18.884;2023-02-14T04:52:35;100871.78;;;1.58;100.00
56721;BME280;53183;47.412;18.884;2023-02-14T04:55:03;100877.00;;;1.61;100.00
56721;BME280;53183;47.412;18.884;2023-02-14T04:57:31;100869.16;;;1.57;100.00
56721;BME280;53183;47.412;18.884;2023-02-14T04:59:59;100876.09;;;1.52;100.00
56721;BME280;53183;47.412;18.884;2023-02-14T05:02:26;100863.97;;;1.61;100.00
56721;BME280;53183;47.412;18.884;2023-02-14T05:04:54;100863.03;;;1.49;100.00
56721;BME280;53183;47.412;18.884;2023-02-14T05:07:21;100867.41;;;1.53;100.00
56721;BME280;53183;47.412;18.884;2023-02-14T05:09:48;100866.50;;;1.51;100.00
56721;BME280;53183;47.412;18.884;2023-02-14T05:12:15;100869.97;;;1.42;100.00
56721;BME280;53183;47.412;18.884;2023-02-14T05:14:43;100867.41;;;1.48;100.00
56721;BME280;53183;47.412;18.884;2023-02-14T05:17:10;100869.09;;;1.46;100.00
56721;BME280;53183;47.412;18.884;2023-02-14T05:19:37;100870.84;;;1.47;100.00
56721;BME280;53183;47.412;18.884;2023-02-14T05:22:05;100876.28;;;1.99;100.00
56721;BME280;53183;47.412;18.884;2023-02-14T05:24:32;100872.94;;;2.52;100.00
56721;BME280;53183;47.412;18.884;2023-02-14T05:26:59;100865.94;;;3.16;100.00
56721;BME280;53183;47.412;18.884;2023-02-14T05:29:26;100865.00;;;3.55;100.00
56721;BME280;53183;47.412;18.884;2023-02-14T05:31:54;100866.69;;;3.71;98.81
56721;BME280;53183;47.412;18.884;2023-02-14T05:34:21;100860.28;;;4.31;94.87
56721;BME280;53183;47.412;18.884;2023-02-14T05:36:48;100870.00;;;4.12;92.79
56721;BME280;53183;47.412;18.884;2023-02-14T05:39:16;100868.50;;;3.48;95.38
56721;BME280;53183;47.412;18.884;2023-02-14T05:41:43;100865.97;;;2.97;98.21
56721;BME280;53183;47.412;18.884;2023-02-14T05:44:10;100861.63;;;2.69;99.64
56721;BME280;53183;47.412;18.884;2023-02-14T05:46:37;100869.47;;;2.50;100.00
56721;BME280;53183;47.412;18.884;2023-02-14T05:49:05;100872.94;;;2.37;100.00
56721;BME280;53183;47.412;18.884;2023-02-14T05:51:32;100873.75;;;2.33;100.00
56721;BME280;53183;47.412;18.884;2023-02-14T05:53:59;100880.69;;;2.19;100.00
56721;BME280;53183;47.412;18.884;2023-02-14T05:56:27;100885.88;;;2.06;100.00
56721;BME280;53183;47.412;18.884;2023-02-14T05:58:54;100883.22;;;2.00;100.00
56721;BME280;53183;47.412;18.884;2023-02-14T06:01:21;100889.31;;;1.92;100.00
56721;BME280;53183;47.412;18.884;2023-02-14T06:03:49;100884.09;;;1.92;100.00
56721;BME280;53183;47.412;18.884;2023-02-14T06:06:16;100880.59;;;1.90;100.00
56721;BME280;53183;47.412;18.884;2023-02-14T06:08:43;100887.53;;;1.86;100.00
56721;BME280;53183;47.412;18.884;2023-02-14T06:11:10;100884.03;;;1.82;100.00
56721;BME280;53183;47.412;18.884;2023-02-14T06:13:37;100891.91;;;1.88;100.00
56721;BME280;53183;47.412;18.884;2023-02-14T06:16:07;100891.91;;;1.88;100.00
56721;BME280;53183;47.412;18.884;2023-02-14T06:18:34;100894.47;;;1.82;100.00
56721;BME280;53183;47.412;18.884;2023-02-14T06:21:02;100902.28;;;1.87;100.00
56721;BME280;53183;47.412;18.884;2023-02-14T06:23:29;100896.22;;;1.86;100.00
56721;BME280;53183;47.412;18.884;2023-02-14T06:25:56;100897.13;;;1.96;100.00
56721;BME280;53183;47.412;18.884;2023-02-14T06:28:24;100892.84;;;2.09;100.00
56721;BME280;53183;47.412;18.884;2023-02-14T06:30:51;100905.91;;;2.21;100.00
56721;BME280;53183;47.412;18.884;2023-02-14T06:33:18;100907.69;;;2.39;100.00
56721;BME280;53183;47.412;18.884;2023-02-14T06:35:45;100906.88;;;2.60;100.00
56721;BME280;53183;47.412;18.884;2023-02-14T06:38:13;100906.00;;;2.72;100.00
56721;BME280;53183;47.412;18.884;2023-02-14T06:40:40;100904.28;;;2.77;100.00
56721;BME280;53183;47.412;18.884;2023-02-14T06:43:07;100912.97;;;2.79;100.00
56721;BME280;53183;47.412;18.884;2023-02-14T06:45:34;100910.38;;;2.88;100.00
56721;BME280;53183;47.412;18.884;2023-02-14T06:48:02;100911.25;;;2.95;100.00
56721;BME280;53183;47.412;18.884;2023-02-14T06:50:29;100917.31;;;3.12;99.95
56721;BME280;53183;47.412;18.884;2023-02-14T06:52:57;100920.81;;;3.14;99.05
56721;BME280;53183;47.412;18.884;2023-02-14T06:55:24;100932.97;;;3.29;98.56
56721;BME280;53183;47.412;18.884;2023-02-14T06:57:51;100928.63;;;3.43;97.65
56721;BME280;53183;47.412;18.884;2023-02-14T07:00:19;100931.25;;;3.31;98.02
56721;BME280;53183;47.412;18.884;2023-02-14T07:02:46;100926.91;;;3.42;97.48
56721;BME280;53183;47.412;18.884;2023-02-14T07:05:13;100934.69;;;3.61;96.69
56721;BME280;53183;47.412;18.884;2023-02-14T07:07:45;100938.94;;;4.02;95.10
56721;BME280;53183;47.412;18.884;2023-02-14T07:10:13;100929.22;;;4.28;92.78
56721;BME280;53183;47.412;18.884;2023-02-14T07:12:40;100930.03;;;4.36;93.06
56721;BME280;53183;47.412;18.884;2023-02-14T07:15:10;100924.72;;;4.55;91.76
56721;BME280;53183;47.412;18.884;2023-02-14T07:17:38;100925.56;;;4.54;91.55
56721;BME280;53183;47.412;18.884;2023-02-14T07:20:06;100926.34;;;4.69;90.44
56721;BME280;53183;47.412;18.884;2023-02-14T07:22:34;100922.16;;;4.42;91.73
56721;BME280;53183;47.412;18.884;2023-02-14T07:25:02;100923.12;;;4.23;93.35
56721;BME280;53183;47.412;18.884;2023-02-14T07:27:30;100924.09;;;4.04;94.19
56721;BME280;53183;47.412;18.884;2023-02-14T07:29:57;100931.94;;;4.00;95.00
56721;BME280;53183;47.412;18.884;2023-02-14T07:32:25;100930.16;;;4.16;94.37
56721;BME280;53183;47.412;18.884;2023-02-14T07:34:52;100934.53;;;4.10;94.76
56721;BME280;53183;47.412;18.884;2023-02-14T07:37:19;100938.94;;;4.03;95.29
56721;BME280;53183;47.412;18.884;2023-02-14T07:39:47;100945.00;;;4.10;95.06
56721;BME280;53183;47.412;18.884;2023-02-14T07:42:14;100943.28;;;4.09;95.44
56721;BME280;53183;47.412;18.884;2023-02-14T07:44:42;100936.28;;;4.12;95.27
56721;BME280;53183;47.412;18.884;2023-02-14T07:47:11;100944.09;;;4.14;95.30
56721;BME280;53183;47.412;18.884;2023-02-14T07:49:38;100943.25;;;4.15;95.07
56721;BME280;53183;47.412;18.884;2023-02-14T07:52:05;100948.47;;;4.13;94.85
56721;BME280;53183;47.412;18.884;2023-02-14T07:54:33;100957.19;;;4.14;94.96
56721;BME280;53183;47.412;18.884;2023-02-14T07:57:00;100956.34;;;4.09;95.45
56721;BME280;53183;47.412;18.884;2023-02-14T07:59:28;100957.19;;;4.14;95.42
56721;BME280;53183;47.412;18.884;2023-02-14T08:01:55;100965.03;;;4.17;95.45
56721;BME280;53183;47.412;18.884;2023-02-14T08:04:23;100958.94;;;4.15;95.23
56721;BME280;53183;47.412;18.884;2023-02-14T08:06:53;100958.06;;;4.11;95.78
56721;BME280;53183;47.412;18.884;2023-02-14T08:09:21;100960.69;;;4.16;95.24
56721;BME280;53183;47.412;18.884;2023-02-14T08:11:56;100959.78;;;4.21;94.73
56721;BME280;53183;47.412;18.884;2023-02-14T08:14:43;100948.41;;;4.30;94.94
56721;BME280;53183;47.412;18.884;2023-02-14T08:17:10;100944.84;;;4.42;94.03
56721;BME280;53183;47.412;18.884;2023-02-14T08:19:39;100957.88;;;4.54;92.23
56721;BME280;53183;47.412;18.884;2023-02-14T08:22:07;100954.34;;;4.64;92.34
56721;BME280;53183;47.412;18.884;2023-02-14T08:24:34;100955.13;;;4.76;91.00
56721;BME280;53183;47.412;18.884;2023-02-14T08:27:02;100945.34;;;5.01;89.97
56721;BME280;53183;47.412;18.884;2023-02-14T08:29:29;100950.44;;;5.19;88.19
56721;BME280;53183;47.412;18.884;2023-02-14T08:31:56;100948.59;;;5.33;87.93
56721;BME280;53183;47.412;18.884;2023-02-14T08:34:26;100950.25;;;5.39;86.75
56721;BME280;53183;47.412;18.884;2023-02-14T08:36:53;100954.44;;;5.58;85.93
56721;BME280;53183;47.412;18.884;2023-02-14T08:39:21;100957.62;;;5.93;85.35
56721;BME280;53183;47.412;18.884;2023-02-14T08:41:48;100959.88;;;6.22;83.50
56721;BME280;53183;47.412;18.884;2023-02-14T08:44:15;100959.56;;;6.49;81.45
56721;BME280;53183;47.412;18.884;2023-02-14T08:46:43;100959.16;;;6.78;79.89
56721;BME280;53183;47.412;18.884;2023-02-14T08:49:10;100961.03;;;6.67;80.64
56721;BME280;53183;47.412;18.884;2023-02-14T08:51:37;100960.91;;;6.76;79.35
56721;BME280;53183;47.412;18.884;2023-02-14T08:54:04;100957.34;;;6.82;79.60
56721;BME280;53183;47.412;18.884;2023-02-14T08:56:32;100958.13;;;6.87;79.19
56721;BME280;53183;47.412;18.884;2023-02-14T08:58:59;100954.56;;;6.91;79.12
56721;BME280;53183;47.412;18.884;2023-02-14T09:01:26;100958.03;;;6.93;78.48
56721;BME280;53183;47.412;18.884;2023-02-14T09:03:55;100962.34;;;6.99;78.52
56721;BME280;53183;47.412;18.884;2023-02-14T09:06:23;100961.03;;;6.69;78.95
56721;BME280;53183;47.412;18.884;2023-02-14T09:08:50;100963.94;;;6.47;79.79
56721;BME280;53183;47.412;18.884;2023-02-14T09:11:22;100958.66;;;6.52;79.96
56721;BME280;53183;47.412;18.884;2023-02-14T09:13:51;100964.06;;;6.40;80.78
56721;BME280;53183;47.412;18.884;2023-02-14T09:16:20;100971.66;;;6.58;80.09
56721;BME280;53183;47.412;18.884;2023-02-14T09:18:48;100973.28;;;6.70;78.74
56721;BME280;53183;47.412;18.884;2023-02-14T09:21:19;100968.72;;;6.81;78.06
56721;BME280;53183;47.412;18.884;2023-02-14T09:23:47;100969.31;;;7.00;78.38
56721;BME280;53183;47.412;18.884;2023-02-14T09:26:15;100967.50;;;7.03;77.32
56721;BME280;53183;47.412;18.884;2023-02-14T09:28:43;100964.56;;;7.23;76.51
56721;BME280;53183;47.412;18.884;2023-02-14T09:31:19;100961.50;;;7.49;76.15
56721;BME280;53183;47.412;18.884;2023-02-14T09:33:48;100963.09;;;7.58;74.22
56721;BME280;53183;47.412;18.884;2023-02-14T09:36:34;100962.56;;;7.86;74.45
56721;BME280;53183;47.412;18.884;2023-02-14T09:39:19;100962.25;;;8.03;74.45
56721;BME280;53183;47.412;18.884;2023-02-14T09:44:42;100969.50;;;8.36;71.23
56721;BME280;53183;47.412;18.884;2023-02-14T09:49:41;100963.31;;;8.79;70.03
56721;BME280;53183;47.412;18.884;2023-02-14T09:52:12;100969.69;;;9.06;68.92
56721;BME280;53183;47.412;18.884;2023-02-14T09:54:46;100971.88;;;8.89;68.37
56721;BME280;53183;47.412;18.884;2023-02-14T10:00:02;100962.13;;;8.91;68.51
56721;BME280;53183;47.412;18.884;2023-02-14T10:07:44;100970.31;;;8.40;69.23
56721;BME280;53183;47.412;18.884;2023-02-14T10:15:45;100965.38;;;8.65;68.45
56721;BME280;53183;47.412;18.884;2023-02-14T10:20:56;100963.97;;;8.89;68.33
56721;BME280;53183;47.412;18.884;2023-02-14T10:23:29;100958.84;;;9.19;66.88
56721;BME280;53183;47.412;18.884;2023-02-14T10:28:38;100951.75;;;9.22;65.47
56721;BME280;53183;47.412;18.884;2023-02-14T10:33:39;100959.00;;;9.48;64.57
56721;BME280;53183;47.412;18.884;2023-02-14T10:36:23;100950.16;;;9.49;63.45
56721;BME280;53183;47.412;18.884;2023-02-14T10:44:03;100952.25;;;9.01;65.33
56721;BME280;53183;47.412;18.884;2023-02-14T10:46:41;100946.56;;;9.18;65.13
56721;BME280;53183;47.412;18.884;2023-02-14T10:51:59;100947.69;;;9.76;62.55
56721;BME280;53183;47.412;18.884;2023-02-14T10:54:35;100939.59;;;9.49;61.70
56721;BME280;53183;47.412;18.884;2023-02-14T10:57:33;100941.63;;;9.39;63.59
56721;BME280;53183;47.412;18.884;2023-02-14T11:02:40;100932.84;;;9.03;63.13
56721;BME280;53183;47.412;18.884;2023-02-14T11:05:30;100931.06;;;9.04;62.76
56721;BME280;53183;47.412;18.884;2023-02-14T11:08:00;100932.41;;;8.86;64.24
56721;BME280;53183;47.412;18.884;2023-02-14T11:10:32;100945.31;;;8.97;62.68
56721;BME280;53183;47.412;18.884;2023-02-14T11:12:59;100934.25;;;8.82;64.67
56721;BME280;53183;47.412;18.884;2023-02-14T11:15:33;100930.44;;;8.94;62.81
56721;BME280;53183;47.412;18.884;2023-02-14T11:20:58;100940.25;;;8.87;64.26
56721;BME280;53183;47.412;18.884;2023-02-14T11:23:31;100940.19;;;8.90;63.52
56721;BME280;53183;47.412;18.884;2023-02-14T11:26:00;100933.00;;;8.97;61.12
56721;BME280;53183;47.412;18.884;2023-02-14T11:28:29;100940.25;;;8.87;61.95
56721;BME280;53183;47.412;18.884;2023-02-14T11:30:56;100935.25;;;8.75;61.67
56721;BME280;53183;47.412;18.884;2023-02-14T11:33:38;100934.53;;;8.70;61.34
56721;BME280;53183;47.412;18.884;2023-02-14T11:36:12;100931.03;;;8.69;60.72
56721;BME280;53183;47.412;18.884;2023-02-14T11:38:40;100923.72;;;8.81;61.63
56721;BME280;53183;47.412;18.884;2023-02-14T11:41:12;100919.56;;;8.71;62.42
56721;BME280;53183;47.412;18.884;2023-02-14T11:43:43;100932.28;;;8.52;63.22
56721;BME280;53183;47.412;18.884;2023-02-14T11:51:50;100924.84;;;8.30;62.31
56721;BME280;53183;47.412;18.884;2023-02-14T11:54:35;100925.66;;;8.32;62.78
56721;BME280;53183;47.412;18.884;2023-02-14T11:57:28;100931.75;;;8.36;62.80
56721;BME280;53183;47.412;18.884;2023-02-14T11:59:54;100928.97;;;8.43;63.72
56721;BME280;53183;47.412;18.884;2023-02-14T12:02:41;100926.94;;;8.56;62.87
56721;BME280;53183;47.412;18.884;2023-02-14T12:05:19;100914.63;;;8.57;62.98
56721;BME280;53183;47.412;18.884;2023-02-14T12:07:49;100916.22;;;8.64;63.35
56721;BME280;53183;47.412;18.884;2023-02-14T12:13:00;100917.84;;;8.68;62.12
56721;BME280;53183;47.412;18.884;2023-02-14T12:20:54;100921.97;;;8.42;62.78
56721;BME280;53183;47.412;18.884;2023-02-14T12:26:40;100913.88;;;8.50;61.92
56721;BME280;53183;47.412;18.884;2023-02-14T12:29:31;100915.00;;;8.38;62.63
56721;BME280;53183;47.412;18.884;2023-02-14T12:32:06;100915.34;;;8.62;61.48
56721;BME280;53183;47.412;18.884;2023-02-14T12:34:37;100906.19;;;8.78;61.21
56721;BME280;53183;47.412;18.884;2023-02-14T12:47:57;100897.25;;;9.54;60.06
56721;BME280;53183;47.412;18.884;2023-02-14T13:07:48;100868.66;;;9.70;59.58
56721;BME280;53183;47.412;18.884;2023-02-14T13:10:04;100869.66;;;9.66;58.78
56721;BME280;53183;47.412;18.884;2023-02-14T13:12:49;100870.31;;;9.74;59.32
56721;BME280;53183;47.412;18.884;2023-02-14T13:15:30;100869.53;;;9.70;59.09
56721;BME280;53183;47.412;18.884;2023-02-14T13:20:55;100872.06;;;9.42;60.05
56721;BME280;53183;47.412;18.884;2023-02-14T13:23:27;100870.47;;;9.36;60.97
56721;BME280;53183;47.412;18.884;2023-02-14T13:26:03;100872.44;;;9.28;61.49
56721;BME280;53183;47.412;18.884;2023-02-14T13:28:32;100874.06;;;8.98;62.13
56721;BME280;53183;47.412;18.884;2023-02-14T13:31:02;100861.94;;;8.91;62.16
56721;BME280;53183;47.412;18.884;2023-02-14T13:33:34;100862.81;;;8.91;62.40
56721;BME280;53183;47.412;18.884;2023-02-14T13:36:06;100865.88;;;8.75;62.60
56721;BME280;53183;47.412;18.884;2023-02-14T13:38:43;100871.47;;;8.61;63.11
56721;BME280;53183;47.412;18.884;2023-02-14T13:41:13;100871.72;;;8.50;63.43
56721;BME280;53183;47.412;18.884;2023-02-14T13:46:14;100872.81;;;8.41;63.36
56721;BME280;53183;47.412;18.884;2023-02-14T13:49:04;100871.44;;;8.22;63.72
56721;BME280;53183;47.412;18.884;2023-02-14T13:51:49;100869.84;;;8.15;64.27
56721;BME280;53183;47.412;18.884;2023-02-14T13:56:57;100861.94;;;8.16;63.75
56721;BME280;53183;47.412;18.884;2023-02-14T13:59:27;100871.69;;;8.11;62.98
56721;BME280;53183;47.412;18.884;2023-02-14T14:04:56;100873.34;;;7.73;64.97
56721;BME280;53183;47.412;18.884;2023-02-14T14:07:25;100875.94;;;7.75;64.01
56721;BME280;53183;47.412;18.884;2023-02-14T14:09:58;100873.47;;;7.67;64.30
56721;BME280;53183;47.412;18.884;2023-02-14T14:22:50;100872.22;;;7.42;66.79
56721;BME280;53183;47.412;18.884;2023-02-14T14:25:48;100870.38;;;7.47;66.74
56721;BME280;53183;47.412;18.884;2023-02-14T14:28:21;100872.84;;;7.55;66.67
56721;BME280;53183;47.412;18.884;2023-02-14T14:30:50;100876.22;;;7.61;65.37
56721;BME280;53183;47.412;18.884;2023-02-14T14:36:06;100873.72;;;7.55;65.85
56721;BME280;53183;47.412;18.884;2023-02-14T14:38:48;100867.47;;;7.59;65.69
56721;BME280;53183;47.412;18.884;2023-02-14T14:41:16;100862.16;;;7.62;66.32
56721;BME280;53183;47.412;18.884;2023-02-14T14:43:45;100860.37;;;7.64;65.74
56721;BME280;53183;47.412;18.884;2023-02-14T14:46:13;100858.66;;;7.62;65.74
56721;BME280;53183;47.412;18.884;2023-02-14T14:48:44;100855.94;;;7.66;65.24
56721;BME280;53183;47.412;18.884;2023-02-14T14:53:59;100862.91;;;7.70;64.67
56721;BME280;53183;47.412;18.884;2023-02-14T14:56:45;100856.91;;;7.62;64.80
56721;BME280;53183;47.412;18.884;2023-02-14T14:59:32;100859.75;;;7.50;65.73
56721;BME280;53183;47.412;18.884;2023-02-14T15:02:19;100864.22;;;7.46;66.28
56721;BME280;53183;47.412;18.884;2023-02-14T15:04:47;100858.09;;;7.46;66.28
56721;BME280;53183;47.412;18.884;2023-02-14T15:07:19;100861.53;;;7.49;66.58
56721;BME280;53183;47.412;18.884;2023-02-14T15:09:46;100861.69;;;7.42;66.58
56721;BME280;53183;47.412;18.884;2023-02-14T15:12:20;100861.69;;;7.42;67.04
56721;BME280;53183;47.412;18.884;2023-02-14T15:15:10;100869.69;;;7.36;67.54
56721;BME280;53183;47.412;18.884;2023-02-14T15:17:39;100860.34;;;7.19;68.15
56721;BME280;53183;47.412;18.884;2023-02-14T15:20:13;100863.13;;;7.12;68.39
56721;BME280;53183;47.412;18.884;2023-02-14T15:22:45;100867.66;;;7.02;68.94
56721;BME280;53183;47.412;18.884;2023-02-14T15:25:42;100860.72;;;6.98;69.04
56721;BME280;53183;47.412;18.884;2023-02-14T15:28:25;100865.19;;;6.94;68.63
56721;BME280;53183;47.412;18.884;2023-02-14T15:30:58;100859.06;;;6.91;68.93
56721;BME280;53183;47.412;18.884;2023-02-14T15:33:27;100860.94;;;6.86;69.00
56721;BME280;53183;47.412;18.884;2023-02-14T15:36:00;100863.78;;;6.70;69.65
56721;BME280;53183;47.412;18.884;2023-02-14T15:38:29;100865.66;;;6.64;70.13
56721;BME280;53183;47.412;18.884;2023-02-14T15:40:58;100874.53;;;6.56;70.24
56721;BME280;53183;47.412;18.884;2023-02-14T15:43:31;100872.03;;;6.49;70.67
56721;BME280;53183;47.412;18.884;2023-02-14T15:46:23;100877.41;;;6.40;70.82
56721;BME280;53183;47.412;18.884;2023-02-14T15:48:57;100882.81;;;6.29;71.43
56721;BME280;53183;47.412;18.884;2023-02-14T15:51:32;100870.63;;;6.22;71.69
56721;BME280;53183;47.412;18.884;2023-02-14T15:54:15;100870.78;;;6.13;72.26